Antigo, Wisconsin
Current Conditions -  °F | °C
As of 8:55 AM on Wednesday 22 Oct 2014 (Local Time) from KAIG Reporting Station
Moderate Fog Moderate Fog  
Wind Chill:   Ceiling: 200
Heat Index:   Visibility: 0.25mi
Dew Point:   Wind: 0mph
Humidity: 100%   Direction: NA
Pressure: 30.35"   Gusts: NA
Location:  45.14°N, 89.15°W
Report Text: KAIG 221355Z AUTO 00000KT 1/4SM FG OVC002 00/00 A3035 RMK AO2 T00000000
Loading
Personal Weather Stations






























Interactive Weather Map
Tropical Storm Tracking
New forecast layout! Learn more

10-Day Weather Forecast

Advertisements
Track Severe Weather on mobile